Weather at Tachikawa Airfield

Public forecast

Using degrees Celsius for public forecast. Weather courtesy of forecast.io.

Current aviation weather report (METAR) for Tachikawa Airfield

Report is more than 6 hours old.

2024/07/14 03:30 (retrieved 16 hours ago)

RJTC 140330Z 03003KT 320V090 9999 FEW008 BKN010 BKN020 26/23 Q1014 RMK 1ST008 5ST010 7SC020 A2995

Closest aviation forecast (TAF) to Tachikawa Airfield

Forecast is more than 6 hours old.

Closest forecast is Yokota Air Base, 3.5 nm (6.4 km) NW.

2024/07/14 13:11 (retrieved 6 hours ago)

TAF RJTY 141300Z 1413/1519 VRB06KT 9999 SCT006 OVC012 QNH2998INS TEMPO 1413/1422 8000 BR BKN006 OVC009 BECMG 1502/1503 VRB06KT 8000 -SHRA SCT008 BKN014 QNH2997INS TEMPO 1505/1509 6000 -RA BR SCT005 BKN008 OVC015 BECMG 1514/1515 VRB06KT 9999 NSW SCT008 BKN015 QNH2996INS TX27/1505Z TN23/1420Z